createdAt,value
2023-03-24T00:02:19.453Z,12.75
2023-03-24T00:04:50.042Z,12.79
2023-03-24T00:07:16.647Z,12.80
2023-03-24T00:09:43.412Z,12.78
2023-03-24T00:12:10.457Z,12.80
2023-03-24T00:14:38.858Z,12.76
2023-03-24T00:17:06.168Z,12.73
2023-03-24T00:19:34.000Z,12.72
2023-03-24T00:22:00.737Z,12.75
2023-03-24T00:24:27.465Z,12.72
2023-03-24T00:26:57.669Z,12.72
2023-03-24T00:29:24.873Z,12.70
2023-03-24T00:31:52.824Z,12.70
2023-03-24T00:34:21.811Z,12.67
2023-03-24T00:36:51.851Z,12.64
2023-03-24T00:39:18.886Z,12.60
2023-03-24T00:41:45.950Z,12.54
2023-03-24T00:44:18.238Z,12.50
2023-03-24T00:46:46.283Z,12.42
2023-03-24T00:49:13.180Z,12.37
2023-03-24T00:51:40.238Z,12.32
2023-03-24T00:54:07.159Z,12.24
2023-03-24T00:56:34.076Z,12.18
2023-03-24T00:59:02.580Z,12.13
2023-03-24T01:01:29.836Z,12.09
2023-03-24T01:03:56.983Z,12.05
2023-03-24T01:06:23.790Z,12.00
2023-03-24T01:08:53.765Z,11.94
2023-03-24T01:11:24.327Z,11.90
2023-03-24T01:13:50.989Z,11.84
2023-03-24T01:16:17.692Z,11.86
2023-03-24T01:18:44.405Z,11.83
2023-03-24T01:21:11.524Z,11.77
2023-03-24T01:23:38.186Z,11.74
2023-03-24T01:26:05.742Z,11.71
2023-03-24T01:28:32.291Z,11.70
2023-03-24T01:30:58.792Z,11.70
2023-03-24T01:33:25.291Z,11.70
2023-03-24T01:35:51.819Z,11.68
2023-03-24T01:38:18.685Z,11.66
2023-03-24T01:40:45.935Z,11.64
2023-03-24T01:43:22.687Z,11.61
2023-03-24T01:45:54.494Z,11.54
2023-03-24T01:48:22.994Z,11.47
2023-03-24T01:50:52.408Z,11.39
2023-03-24T01:53:18.921Z,11.31
2023-03-24T01:55:45.825Z,11.29
2023-03-24T01:58:12.296Z,11.27
2023-03-24T02:00:39.737Z,11.23
2023-03-24T02:03:10.413Z,11.20
2023-03-24T02:05:37.741Z,11.20
2023-03-24T02:08:09.392Z,11.18
2023-03-24T02:10:35.900Z,11.15
2023-03-24T02:13:04.130Z,11.13
2023-03-24T02:15:31.344Z,11.14
2023-03-24T02:18:10.023Z,11.14
2023-03-24T02:20:39.626Z,11.15
2023-03-24T02:23:14.636Z,11.20
2023-03-24T02:25:51.379Z,11.31
2023-03-24T02:28:24.248Z,11.33
2023-03-24T02:31:09.492Z,11.37
2023-03-24T02:33:52.015Z,11.39
2023-03-24T02:36:33.986Z,11.44
2023-03-24T02:39:12.952Z,11.47
2023-03-24T02:41:42.050Z,11.53
2023-03-24T02:44:20.072Z,11.55
2023-03-24T02:46:51.418Z,11.56
2023-03-24T02:49:23.884Z,11.56
2023-03-24T02:51:59.513Z,11.55
2023-03-24T02:54:29.047Z,11.56
2023-03-24T02:57:11.233Z,11.59
2023-03-24T02:59:45.128Z,11.55
2023-03-24T03:02:21.903Z,11.56
2023-03-24T03:04:55.555Z,11.54
2023-03-24T03:07:22.870Z,11.49
2023-03-24T03:09:51.856Z,11.51
2023-03-24T03:12:18.307Z,11.54
2023-03-24T03:14:46.459Z,11.58
2023-03-24T03:17:14.691Z,11.62
2023-03-24T03:19:42.280Z,11.66
2023-03-24T03:22:11.711Z,11.69
2023-03-24T03:24:39.331Z,11.73
2023-03-24T03:27:10.805Z,11.75
2023-03-24T03:29:38.562Z,11.80
2023-03-24T03:32:08.200Z,11.81
2023-03-24T03:35:13.918Z,11.88
2023-03-24T03:37:47.336Z,11.88
2023-03-24T03:40:18.077Z,11.89
2023-03-24T03:42:44.723Z,11.93
2023-03-24T03:45:11.376Z,11.93
2023-03-24T03:47:38.058Z,11.92
2023-03-24T03:50:04.735Z,11.92
2023-03-24T03:52:31.208Z,11.90
2023-03-24T03:54:57.932Z,11.87
2023-03-24T03:57:24.372Z,11.85
2023-03-24T03:59:51.055Z,11.82
2023-03-24T04:02:34.872Z,11.83
2023-03-24T04:05:07.771Z,11.83
2023-03-24T04:07:40.276Z,11.82
2023-03-24T04:10:12.973Z,11.82
2023-03-24T04:12:43.465Z,11.86
2023-03-24T04:15:28.632Z,11.85
2023-03-24T04:18:07.489Z,11.84
2023-03-24T04:20:38.408Z,11.83
2023-03-24T04:23:09.347Z,11.82
2023-03-24T04:25:49.920Z,11.82
2023-03-24T04:28:26.681Z,11.83
2023-03-24T04:31:03.948Z,11.81
2023-03-24T04:33:34.104Z,11.77
2023-03-24T04:36:06.918Z,11.74
2023-03-24T04:38:35.671Z,11.70
2023-03-24T04:41:02.137Z,11.67
2023-03-24T04:43:29.003Z,11.63
2023-03-24T04:45:58.054Z,11.60
2023-03-24T04:48:24.750Z,11.58
2023-03-24T04:50:55.375Z,11.51
2023-03-24T04:53:21.900Z,11.43
2023-03-24T04:55:57.465Z,11.35
2023-03-24T04:58:23.932Z,11.34
2023-03-24T05:00:51.280Z,11.32
2023-03-24T05:03:17.989Z,11.29
2023-03-24T05:05:45.260Z,11.27
2023-03-24T05:08:11.848Z,11.24
2023-03-24T05:10:38.332Z,11.23
2023-03-24T05:13:04.934Z,11.27
2023-03-24T05:15:31.683Z,11.27
2023-03-24T05:17:58.313Z,11.24
2023-03-24T05:20:24.920Z,11.20
2023-03-24T05:22:52.133Z,11.19
2023-03-24T05:25:18.676Z,11.20
2023-03-24T05:27:45.263Z,11.19
2023-03-24T05:30:11.979Z,11.18
2023-03-24T05:32:38.462Z,11.17
2023-03-24T05:35:05.298Z,11.15
2023-03-24T05:37:31.761Z,11.15
2023-03-24T05:39:58.209Z,11.14
2023-03-24T05:42:24.759Z,11.13
2023-03-24T05:44:51.484Z,11.13
2023-03-24T05:47:20.170Z,11.14
2023-03-24T05:49:46.694Z,11.15
2023-03-24T05:52:13.324Z,11.18
2023-03-24T05:54:39.876Z,11.18
2023-03-24T05:57:09.321Z,11.24
2023-03-24T05:59:38.082Z,11.26
2023-03-24T06:02:04.719Z,11.24
2023-03-24T06:07:59.280Z,11.22
2023-03-24T06:10:26.560Z,11.26
2023-03-24T06:12:53.027Z,11.28
2023-03-24T06:15:19.622Z,11.32
2023-03-24T06:17:48.430Z,11.33
2023-03-24T06:20:16.220Z,11.35
2023-03-24T06:22:44.366Z,11.38
2023-03-24T06:25:11.298Z,11.42
2023-03-24T06:27:37.995Z,11.47
2023-03-24T06:30:04.675Z,11.59
2023-03-24T06:32:31.194Z,11.71
2023-03-24T06:34:58.846Z,11.84
2023-03-24T06:37:25.361Z,12.00
2023-03-24T06:39:52.324Z,12.15
2023-03-24T06:42:19.125Z,12.31
2023-03-24T06:44:46.018Z,12.47
2023-03-24T06:47:12.542Z,12.61
2023-03-24T06:49:38.986Z,12.75
2023-03-24T06:52:05.673Z,12.88
2023-03-24T06:54:32.221Z,13.02
2023-03-24T06:56:58.753Z,13.14
2023-03-24T06:59:25.283Z,13.19
2023-03-24T07:01:52.184Z,13.29
2023-03-24T07:04:18.881Z,13.39
2023-03-24T07:06:58.681Z,13.51
2023-03-24T07:09:32.755Z,13.65
2023-03-24T07:11:59.270Z,13.82
2023-03-24T07:14:26.548Z,13.93
2023-03-24T07:16:53.707Z,14.06
2023-03-24T07:19:20.851Z,14.21
2023-03-24T07:21:50.149Z,14.35
2023-03-24T07:24:17.274Z,14.48
2023-03-24T07:26:43.794Z,14.74
2023-03-24T07:29:11.032Z,14.94
2023-03-24T07:31:39.734Z,15.20
2023-03-24T07:34:06.515Z,15.52
2023-03-24T07:36:35.180Z,15.88
2023-03-24T07:39:04.915Z,16.29
2023-03-24T07:41:31.418Z,16.69
2023-03-24T07:43:57.873Z,17.22
2023-03-24T07:46:24.488Z,17.89
2023-03-24T07:48:51.448Z,18.68
2023-03-24T07:51:19.937Z,19.48
2023-03-24T07:53:47.868Z,20.37
2023-03-24T07:59:36.408Z,22.37
2023-03-24T08:02:03.163Z,22.98
2023-03-24T08:04:29.952Z,23.07
2023-03-24T08:06:57.422Z,22.94
2023-03-24T08:09:25.194Z,22.85
2023-03-24T08:11:51.676Z,22.74
2023-03-24T08:14:18.232Z,22.62
2023-03-24T08:16:46.159Z,22.46
2023-03-24T08:19:12.755Z,22.29
2023-03-24T08:21:39.632Z,22.07
2023-03-24T08:24:06.918Z,21.85
2023-03-24T08:26:35.493Z,21.74
2023-03-24T08:29:02.308Z,21.58
2023-03-24T08:31:32.864Z,21.43
2023-03-24T08:33:59.934Z,21.29
2023-03-24T08:36:29.358Z,21.10
2023-03-24T08:38:55.909Z,20.89
2023-03-24T08:41:23.181Z,20.82
2023-03-24T08:43:49.812Z,20.72
2023-03-24T08:46:16.723Z,20.62
2023-03-24T08:48:43.984Z,20.50
2023-03-24T08:51:11.931Z,20.38
2023-03-24T08:53:38.470Z,20.28
2023-03-24T08:56:05.324Z,20.21
2023-03-24T08:58:31.871Z,20.31
2023-03-24T09:00:58.392Z,20.41
2023-03-24T09:03:24.877Z,20.48
2023-03-24T09:05:51.466Z,20.61
2023-03-24T09:08:18.465Z,20.73
2023-03-24T09:10:47.180Z,20.74
2023-03-24T09:13:14.045Z,20.73
2023-03-24T09:15:40.807Z,20.76
2023-03-24T09:18:07.897Z,20.74
2023-03-24T09:20:34.509Z,20.80
2023-03-24T09:23:01.255Z,20.90
2023-03-24T09:25:27.805Z,20.97
2023-03-24T09:27:54.372Z,20.95
2023-03-24T09:30:21.106Z,21.02
2023-03-24T09:32:47.641Z,20.97
2023-03-24T09:35:14.295Z,20.98
2023-03-24T09:37:40.947Z,20.87
2023-03-24T09:40:07.950Z,20.85
2023-03-24T09:42:38.765Z,20.86
2023-03-24T09:45:07.798Z,20.80
2023-03-24T09:47:36.497Z,20.79
2023-03-24T09:50:04.632Z,20.81
2023-03-24T09:52:35.182Z,20.80
2023-03-24T09:55:02.783Z,20.80
2023-03-24T09:57:30.333Z,20.87
2023-03-24T09:59:56.886Z,21.00
2023-03-24T10:02:23.471Z,21.06
2023-03-24T10:04:50.218Z,21.07
2023-03-24T10:07:25.468Z,21.20
2023-03-24T10:09:59.578Z,21.35
2023-03-24T10:12:30.017Z,21.42
2023-03-24T10:15:01.316Z,21.40
2023-03-24T10:17:37.275Z,21.37
2023-03-24T10:20:07.764Z,21.40
2023-03-24T10:22:43.827Z,21.39
2023-03-24T10:25:16.434Z,21.38
2023-03-24T10:27:45.543Z,21.40
2023-03-24T10:30:19.473Z,21.39
2023-03-24T10:32:46.139Z,21.45
2023-03-24T10:35:20.310Z,21.54
2023-03-24T10:37:46.749Z,21.66
2023-03-24T10:40:18.272Z,21.72
2023-03-24T10:42:45.239Z,21.73
2023-03-24T10:45:19.045Z,21.73
2023-03-24T10:47:45.623Z,21.80
2023-03-24T10:50:14.578Z,21.78
2023-03-24T10:52:47.420Z,21.72
2023-03-24T10:55:15.297Z,21.67
2023-03-24T10:57:43.147Z,21.44
2023-03-24T11:00:17.647Z,21.22
2023-03-24T11:02:44.289Z,21.10
2023-03-24T11:05:15.338Z,21.09
2023-03-24T11:07:42.097Z,21.02
2023-03-24T11:10:13.707Z,21.12
2023-03-24T11:12:41.051Z,21.16
2023-03-24T11:15:22.092Z,21.17
2023-03-24T11:17:54.133Z,21.21
2023-03-24T11:20:25.288Z,21.23
2023-03-24T11:23:09.292Z,21.13
2023-03-24T11:25:36.971Z,20.99
2023-03-24T11:28:05.922Z,20.87
2023-03-24T11:30:37.607Z,20.89
2023-03-24T11:33:05.208Z,20.85
2023-03-24T11:35:59.132Z,20.81
2023-03-24T11:38:21.970Z,20.81
2023-03-24T11:40:58.304Z,20.83
2023-03-24T11:43:25.058Z,20.75
2023-03-24T11:49:13.924Z,20.57
2023-03-24T11:51:41.368Z,20.58
2023-03-24T11:54:14.380Z,20.63
2023-03-24T11:56:54.563Z,20.44
2023-03-24T11:59:32.428Z,20.39
2023-03-24T12:05:24.066Z,19.95
2023-03-24T12:08:05.859Z,19.84
2023-03-24T12:10:38.469Z,19.83
2023-03-24T12:13:10.350Z,19.79
2023-03-24T12:15:49.294Z,19.82
2023-03-24T12:18:19.018Z,19.85
2023-03-24T12:27:56.085Z,19.92
2023-03-24T12:30:29.630Z,19.98
2023-03-24T12:33:08.813Z,20.03
2023-03-24T12:35:45.164Z,20.02
2023-03-24T12:38:11.993Z,19.86
2023-03-24T12:40:41.877Z,19.78
2023-03-24T12:43:38.021Z,19.72
2023-03-24T12:46:15.801Z,19.77
2023-03-24T12:48:49.553Z,19.78
2023-03-24T12:51:16.120Z,19.70
2023-03-24T12:54:01.728Z,19.66
2023-03-24T12:56:36.408Z,19.64
2023-03-24T12:59:04.276Z,18.91
2023-03-24T13:01:35.981Z,19.65
2023-03-24T13:04:10.660Z,19.59
2023-03-24T13:06:54.903Z,19.60
2023-03-24T13:09:24.066Z,19.59
2023-03-24T13:11:50.728Z,19.55
2023-03-24T13:14:19.616Z,19.48
2023-03-24T13:16:46.686Z,19.24
2023-03-24T13:19:16.854Z,19.15
2023-03-24T13:21:43.520Z,18.99
2023-03-24T13:24:15.001Z,18.88
2023-03-24T13:27:00.768Z,18.78
2023-03-24T13:29:41.745Z,18.63
2023-03-24T13:32:20.442Z,18.52
2023-03-24T13:34:55.899Z,18.42
2023-03-24T13:37:26.647Z,18.36
2023-03-24T13:39:57.210Z,18.28
2023-03-24T13:42:29.687Z,18.22
2023-03-24T13:44:56.182Z,18.21
2023-03-24T13:47:23.406Z,18.11
2023-03-24T13:50:02.828Z,18.08
2023-03-24T13:52:31.740Z,18.02
2023-03-24T13:54:58.930Z,17.92
2023-03-24T13:57:25.559Z,17.88
2023-03-24T14:00:07.968Z,17.93
2023-03-24T14:02:42.632Z,17.95
2023-03-24T14:05:10.840Z,17.94
2023-03-24T14:07:40.050Z,18.01
2023-03-24T14:10:20.732Z,17.96
2023-03-24T14:12:54.017Z,17.94
2023-03-24T14:15:20.582Z,18.00
2023-03-24T14:17:48.285Z,18.00
2023-03-24T14:20:34.009Z,17.99
2023-03-24T14:23:00.616Z,17.94
2023-03-24T14:25:28.859Z,17.79
2023-03-24T14:28:14.111Z,17.68
2023-03-24T14:30:53.888Z,17.63
2023-03-24T14:33:26.726Z,17.59
2023-03-24T14:35:57.881Z,17.53
2023-03-24T14:38:24.987Z,17.46
2023-03-24T14:40:58.338Z,17.43
2023-03-24T14:43:28.592Z,17.43
2023-03-24T14:45:56.638Z,17.41
2023-03-24T14:48:26.207Z,17.41
2023-03-24T14:50:53.301Z,17.39
2023-03-24T14:53:20.009Z,17.33
2023-03-24T14:55:47.994Z,17.29
2023-03-24T14:58:14.671Z,17.25
2023-03-24T15:00:51.707Z,17.08
2023-03-24T15:03:28.415Z,17.00
2023-03-24T15:05:55.487Z,16.88
2023-03-24T15:08:22.535Z,16.78
2023-03-24T15:11:05.689Z,16.71
2023-03-24T15:13:35.365Z,16.60
2023-03-24T15:16:03.833Z,16.43
2023-03-24T15:18:30.396Z,16.40
2023-03-24T15:20:57.657Z,16.34
2023-03-24T15:23:25.077Z,16.25
2023-03-24T15:25:54.388Z,16.20
2023-03-24T15:28:26.290Z,16.15
2023-03-24T15:30:52.884Z,16.08
2023-03-24T15:33:19.384Z,16.04
2023-03-24T15:35:46.065Z,16.07
2023-03-24T15:38:19.308Z,16.00
2023-03-24T15:40:52.611Z,15.97
2023-03-24T15:43:19.748Z,15.91
2023-03-24T15:45:50.975Z,15.84
2023-03-24T15:48:18.562Z,15.76
2023-03-24T15:51:15.221Z,15.70
2023-03-24T15:53:44.345Z,15.59
2023-03-24T15:56:18.289Z,15.47
2023-03-24T15:58:54.834Z,15.29
2023-03-24T16:01:27.405Z,15.16
2023-03-24T16:03:54.002Z,15.08
2023-03-24T16:06:30.104Z,15.07
2023-03-24T16:09:00.360Z,15.04
2023-03-24T16:11:28.555Z,14.93
2023-03-24T16:13:55.210Z,14.88
2023-03-24T16:16:23.486Z,14.78
2023-03-24T16:18:50.248Z,14.66
2023-03-24T16:21:16.796Z,14.64
2023-03-24T16:23:43.638Z,14.56
2023-03-24T16:26:17.055Z,14.50
2023-03-24T16:28:43.796Z,14.44
2023-03-24T16:31:31.031Z,14.34
2023-03-24T16:33:58.149Z,14.37
2023-03-24T16:36:27.914Z,14.30
2023-03-24T16:38:54.807Z,14.26
2023-03-24T16:41:21.694Z,14.22
2023-03-24T16:43:48.439Z,14.19
2023-03-24T16:46:27.141Z,14.15
2023-03-24T16:48:53.774Z,14.06
2023-03-24T16:51:20.419Z,14.09
2023-03-24T16:53:46.833Z,13.98
2023-03-24T16:56:14.231Z,13.92
2023-03-24T16:58:41.075Z,13.92
2023-03-24T17:01:14.256Z,13.90
2023-03-24T17:03:44.771Z,13.81
2023-03-24T17:06:11.276Z,13.83
2023-03-24T17:08:37.876Z,13.77
2023-03-24T17:11:04.422Z,13.69
2023-03-24T17:13:30.900Z,13.67
2023-03-24T17:15:57.640Z,13.59
2023-03-24T17:18:24.178Z,13.54
2023-03-24T17:20:51.485Z,13.51
2023-03-24T17:23:19.061Z,13.53
2023-03-24T17:25:45.642Z,13.47
2023-03-24T17:28:12.777Z,13.42
2023-03-24T17:30:39.274Z,13.40
2023-03-24T17:33:05.799Z,13.36
2023-03-24T17:36:00.465Z,13.31
2023-03-24T17:38:27.091Z,13.21
2023-03-24T17:41:00.390Z,13.30
2023-03-24T17:43:27.355Z,13.15
2023-03-24T17:46:00.236Z,13.03
2023-03-24T17:48:26.896Z,13.03
2023-03-24T17:50:54.325Z,13.00
2023-03-24T17:53:26.820Z,12.95
2023-03-24T17:55:53.814Z,12.92
2023-03-24T17:58:20.518Z,12.89
2023-03-24T18:00:47.139Z,12.80
2023-03-24T18:03:13.978Z,12.74
2023-03-24T18:05:43.672Z,12.75
2023-03-24T18:08:11.740Z,12.85
2023-03-24T18:10:38.615Z,12.77
2023-03-24T18:13:05.604Z,12.74
2023-03-24T18:15:32.413Z,12.74
2023-03-24T18:17:58.978Z,12.67
2023-03-24T18:20:26.163Z,12.62
2023-03-24T18:22:52.643Z,12.57
2023-03-24T18:25:19.176Z,12.55
2023-03-24T18:27:45.841Z,12.57
2023-03-24T18:30:12.791Z,12.56
2023-03-24T18:32:39.830Z,12.54
2023-03-24T18:35:10.276Z,12.54
2023-03-24T18:37:36.932Z,12.54
2023-03-24T18:40:07.017Z,12.56
2023-03-24T18:42:35.955Z,12.62
2023-03-24T18:45:02.657Z,12.64
2023-03-24T18:47:29.222Z,12.64
2023-03-24T18:49:55.992Z,12.64
2023-03-24T18:52:22.605Z,12.58
2023-03-24T18:54:49.369Z,12.57
2023-03-24T18:57:16.479Z,12.58
2023-03-24T18:59:43.084Z,12.54
2023-03-24T19:02:11.051Z,12.50
2023-03-24T19:04:38.175Z,12.49
2023-03-24T19:07:08.277Z,12.45
2023-03-24T19:09:34.825Z,12.44
2023-03-24T19:12:01.504Z,12.47
2023-03-24T19:14:28.759Z,12.48
2023-03-24T19:16:57.282Z,12.50
2023-03-24T19:19:23.905Z,12.41
2023-03-24T19:21:50.434Z,12.35
2023-03-24T19:24:17.159Z,12.33
2023-03-24T19:26:43.803Z,12.31
2023-03-24T19:29:10.518Z,12.32
2023-03-24T19:31:37.011Z,12.31
2023-03-24T19:34:03.734Z,12.37
2023-03-24T19:36:30.483Z,12.32
2023-03-24T19:38:57.188Z,12.27
2023-03-24T19:41:26.395Z,12.30
2023-03-24T19:43:52.951Z,12.29
2023-03-24T19:46:22.654Z,12.27
2023-03-24T19:48:57.280Z,12.26
2023-03-24T19:51:24.250Z,12.23
2023-03-24T19:53:50.857Z,12.20
2023-03-24T19:56:19.219Z,12.11
2023-03-24T19:58:45.882Z,12.03
2023-03-24T20:01:12.891Z,11.97
2023-03-24T20:03:40.208Z,11.92
2023-03-24T20:06:10.005Z,11.86
2023-03-24T20:08:39.543Z,11.84
2023-03-24T20:11:06.744Z,11.83
2023-03-24T20:13:33.208Z,11.83
2023-03-24T20:15:59.796Z,11.78
2023-03-24T20:18:26.254Z,11.69
2023-03-24T20:20:54.486Z,11.62
2023-03-24T20:23:21.008Z,11.53
2023-03-24T20:25:47.582Z,11.40
2023-03-24T20:28:14.655Z,11.30
2023-03-24T20:30:45.018Z,11.17
2023-03-24T20:33:12.244Z,11.04
2023-03-24T20:35:39.840Z,10.95
2023-03-24T20:38:06.430Z,10.90
2023-03-24T20:40:32.936Z,10.83
2023-03-24T20:42:59.492Z,10.76
2023-03-24T20:45:26.810Z,10.73
2023-03-24T20:47:53.398Z,10.66
2023-03-24T20:50:20.174Z,10.65
2023-03-24T20:52:47.515Z,10.63
2023-03-24T20:55:14.716Z,10.62
2023-03-24T20:57:41.591Z,10.61
2023-03-24T21:00:14.022Z,10.60
2023-03-24T21:02:44.076Z,10.59
2023-03-24T21:05:10.950Z,10.61
2023-03-24T21:07:38.487Z,10.63
2023-03-24T21:10:06.781Z,10.62
2023-03-24T21:12:33.674Z,10.62
2023-03-24T21:15:00.465Z,10.61
2023-03-24T21:17:32.109Z,10.64
2023-03-24T21:20:02.511Z,10.67
2023-03-24T21:22:38.009Z,10.73
2023-03-24T21:25:04.858Z,10.77
2023-03-24T21:27:31.402Z,10.82
2023-03-24T21:29:57.887Z,10.86
2023-03-24T21:32:24.330Z,10.85
2023-03-24T21:34:50.851Z,10.82
2023-03-24T21:37:19.664Z,10.82
2023-03-24T21:39:46.578Z,10.82
2023-03-24T21:42:15.341Z,10.85
2023-03-24T21:44:42.975Z,10.89
2023-03-24T21:47:09.630Z,10.94
2023-03-24T21:49:36.130Z,10.99
2023-03-24T21:52:03.192Z,11.02
2023-03-24T21:54:30.915Z,11.05
2023-03-24T21:56:57.573Z,11.12
2023-03-24T21:59:24.220Z,11.14
2023-03-24T22:01:52.421Z,11.19
2023-03-24T22:04:19.075Z,11.24
2023-03-24T22:06:47.411Z,11.28
2023-03-24T22:09:14.126Z,11.34
2023-03-24T22:11:43.057Z,11.39
2023-03-24T22:14:09.755Z,11.42
2023-03-24T22:16:36.740Z,11.44
2023-03-24T22:19:03.374Z,11.47
2023-03-24T22:21:29.853Z,11.51
2023-03-24T22:23:56.644Z,11.53
2023-03-24T22:26:23.318Z,11.54
2023-03-24T22:28:50.608Z,11.53
2023-03-24T22:31:17.145Z,11.56
2023-03-24T22:33:44.434Z,11.56
2023-03-24T22:36:11.350Z,11.56
2023-03-24T22:38:37.946Z,11.55
2023-03-24T22:41:08.324Z,11.48
2023-03-24T22:43:35.533Z,11.40
2023-03-24T22:46:02.406Z,11.32
2023-03-24T22:48:28.923Z,11.26
2023-03-24T22:50:55.375Z,11.23
2023-03-24T22:53:21.900Z,11.15
2023-03-24T22:55:48.702Z,11.08
2023-03-24T22:58:15.513Z,10.99
2023-03-24T23:00:42.221Z,10.91
2023-03-24T23:03:08.984Z,10.86
2023-03-24T23:05:39.426Z,10.85
2023-03-24T23:08:06.116Z,10.81
2023-03-24T23:10:32.555Z,10.84
2023-03-24T23:12:58.999Z,10.89
2023-03-24T23:15:26.363Z,10.90
2023-03-24T23:17:52.834Z,10.90
2023-03-24T23:20:19.965Z,10.93
2023-03-24T23:22:47.687Z,11.00
2023-03-24T23:25:14.542Z,11.09
2023-03-24T23:34:38.098Z,11.10
2023-03-24T23:37:04.894Z,11.11
2023-03-24T23:39:32.052Z,11.16
2023-03-24T23:41:58.758Z,11.15
2023-03-24T23:44:25.496Z,11.15
2023-03-24T23:46:52.028Z,11.18
2023-03-24T23:49:18.564Z,11.19
2023-03-24T23:51:44.983Z,11.21
2023-03-24T23:54:11.506Z,11.18
2023-03-24T23:56:38.793Z,11.15
2023-03-24T23:59:06.112Z,11.14
